createdAt,value
2017-06-13T00:01:18.991Z,15.80
2017-06-13T00:03:47.279Z,15.80
2017-06-13T00:06:15.571Z,15.80
2017-06-13T00:08:43.074Z,15.80
2017-06-13T00:11:10.566Z,15.80
2017-06-13T00:13:38.853Z,15.80
2017-06-13T00:16:07.118Z,15.80
2017-06-13T00:18:35.410Z,15.80
2017-06-13T00:21:03.710Z,15.80
2017-06-13T00:23:31.205Z,15.80
2017-06-13T00:25:58.702Z,15.80
2017-06-13T00:28:27.006Z,15.70
2017-06-13T00:30:54.502Z,15.70
2017-06-13T00:33:21.998Z,15.70
2017-06-13T00:35:49.690Z,15.70
2017-06-13T00:38:17.185Z,15.60
2017-06-13T00:40:44.675Z,15.70
2017-06-13T00:43:13.071Z,15.70
2017-06-13T00:45:40.574Z,15.60
2017-06-13T00:48:08.069Z,15.60
2017-06-13T00:50:36.378Z,15.60
2017-06-13T00:53:03.878Z,15.60
2017-06-13T00:55:31.374Z,15.60
2017-06-13T00:57:58.913Z,15.70
2017-06-13T01:00:26.401Z,15.70
2017-06-13T01:02:53.895Z,15.70
2017-06-13T01:05:21.434Z,15.60
2017-06-13T01:07:48.931Z,15.60
2017-06-13T01:10:16.431Z,15.50
2017-06-13T01:12:47.374Z,15.50
2017-06-13T01:15:14.874Z,15.50
2017-06-13T01:17:42.366Z,15.60
2017-06-13T01:20:10.659Z,15.50
2017-06-13T01:22:38.198Z,15.40
2017-06-13T01:25:05.690Z,15.50
2017-06-13T01:27:33.196Z,15.50
2017-06-13T01:30:00.920Z,15.50
2017-06-13T01:32:28.422Z,15.50
2017-06-13T01:34:55.910Z,15.50
2017-06-13T01:37:24.302Z,15.40
2017-06-13T01:39:51.802Z,15.40
2017-06-13T01:42:19.701Z,15.40
2017-06-13T01:44:47.323Z,15.40
2017-06-13T01:47:14.827Z,15.40
2017-06-13T01:49:42.341Z,15.40
2017-06-13T01:52:09.874Z,15.40
2017-06-13T01:54:37.407Z,15.40
2017-06-13T01:57:05.675Z,15.30
2017-06-13T01:59:33.220Z,15.30
2017-06-13T02:02:00.719Z,15.40
2017-06-13T02:04:28.227Z,15.30
2017-06-13T02:06:55.864Z,15.30
2017-06-13T02:09:23.363Z,15.30
2017-06-13T02:11:50.863Z,15.30
2017-06-13T02:14:18.834Z,15.20
2017-06-13T02:16:46.339Z,15.20
2017-06-13T02:19:13.839Z,15.20
2017-06-13T02:21:41.371Z,15.20
2017-06-13T02:24:08.918Z,15.20
2017-06-13T02:26:36.418Z,15.10
2017-06-13T02:29:03.919Z,15.10
2017-06-13T02:31:31.447Z,15.10
2017-06-13T02:33:58.998Z,15.10
2017-06-13T02:36:26.509Z,15.10
2017-06-13T02:38:54.011Z,15.10
2017-06-13T02:41:22.100Z,15.10
2017-06-13T02:43:49.598Z,15.10
2017-06-13T02:46:17.095Z,15.10
2017-06-13T02:48:45.487Z,15.10
2017-06-13T02:51:12.991Z,15.10
2017-06-13T02:53:40.491Z,15.10
2017-06-13T02:56:08.803Z,15.00
2017-06-13T02:58:36.306Z,15.00
2017-06-13T03:01:03.802Z,14.90
2017-06-13T03:03:31.430Z,14.90
2017-06-13T03:05:58.926Z,14.90
2017-06-13T03:08:26.431Z,15.00
2017-06-13T03:10:54.155Z,14.90
2017-06-13T03:13:21.655Z,15.00
2017-06-13T03:15:49.158Z,14.90
2017-06-13T03:18:16.787Z,14.90
2017-06-13T03:20:44.286Z,14.90
2017-06-13T03:23:11.902Z,14.90
2017-06-13T03:25:39.447Z,14.90
2017-06-13T03:28:06.951Z,14.90
2017-06-13T03:30:34.456Z,14.90
2017-06-13T03:33:02.186Z,14.90
2017-06-13T03:35:29.691Z,14.80
2017-06-13T03:37:57.186Z,14.90
2017-06-13T03:40:25.486Z,14.90
2017-06-13T03:42:52.988Z,14.90
2017-06-13T03:45:20.518Z,14.90
2017-06-13T03:47:48.043Z,14.90
2017-06-13T03:50:15.550Z,14.90
2017-06-13T03:52:43.070Z,14.90
2017-06-13T03:55:11.047Z,14.90
2017-06-13T03:57:38.546Z,14.90
2017-06-13T04:00:06.050Z,14.90
2017-06-13T04:02:34.350Z,14.90
2017-06-13T04:05:01.857Z,14.90
2017-06-13T04:07:29.383Z,14.90
2017-06-13T04:09:56.882Z,14.90
2017-06-13T04:12:24.411Z,15.00
2017-06-13T04:14:51.939Z,15.00
2017-06-13T04:17:19.466Z,15.10
2017-06-13T04:19:47.734Z,15.10
2017-06-13T04:22:15.267Z,15.10
2017-06-13T04:24:42.898Z,15.10
2017-06-13T04:27:10.406Z,15.20
2017-06-13T04:29:37.915Z,15.20
2017-06-13T04:32:05.462Z,15.30
2017-06-13T04:34:32.963Z,15.20
2017-06-13T04:37:00.462Z,15.30
2017-06-13T04:39:28.977Z,15.20
2017-06-13T04:41:56.478Z,15.20
2017-06-13T04:44:23.979Z,15.20
2017-06-13T04:46:51.611Z,15.20
2017-06-13T04:49:19.120Z,15.30
2017-06-13T04:51:46.628Z,15.40
2017-06-13T04:54:14.174Z,15.40
2017-06-13T04:56:41.674Z,15.40
2017-06-13T04:59:09.179Z,15.30
2017-06-13T05:01:36.727Z,15.40
2017-06-13T05:04:04.592Z,15.40
2017-06-13T05:06:32.099Z,15.40
2017-06-13T05:09:00.402Z,15.40
2017-06-13T05:11:27.916Z,15.40
2017-06-13T05:13:55.446Z,15.40
2017-06-13T05:16:22.975Z,15.40
2017-06-13T05:18:50.478Z,15.50
2017-06-13T05:21:18.211Z,15.50
2017-06-13T05:23:45.721Z,15.50
2017-06-13T05:26:13.228Z,15.50
2017-06-13T05:28:40.762Z,15.60
2017-06-13T05:31:08.335Z,15.60
2017-06-13T05:33:35.842Z,15.70
2017-06-13T05:36:03.346Z,15.70
2017-06-13T05:38:31.943Z,15.70
2017-06-13T05:40:59.446Z,15.70
2017-06-13T05:43:26.950Z,15.70
2017-06-13T05:45:54.507Z,15.80
2017-06-13T05:48:22.774Z,15.70
2017-06-13T05:50:51.047Z,15.80
2017-06-13T05:53:19.671Z,15.80
2017-06-13T05:55:47.175Z,15.80
2017-06-13T05:58:14.686Z,15.80
2017-06-13T06:00:42.214Z,16.00
2017-06-13T06:03:10.682Z,16.30
2017-06-13T06:05:38.187Z,16.30
2017-06-13T06:08:05.694Z,16.40
2017-06-13T06:10:33.331Z,16.50
2017-06-13T06:13:00.878Z,16.70
2017-06-13T06:15:28.426Z,16.90
2017-06-13T06:17:56.294Z,16.90
2017-06-13T06:20:23.955Z,17.00
2017-06-13T06:22:51.471Z,17.00
2017-06-13T06:25:19.176Z,17.00
2017-06-13T06:27:46.690Z,16.90
2017-06-13T06:30:14.298Z,17.00
2017-06-13T06:32:41.838Z,17.00
2017-06-13T06:35:10.107Z,16.90
2017-06-13T06:37:37.896Z,16.90
2017-06-13T06:40:05.399Z,16.90
2017-06-13T06:42:32.903Z,16.90
2017-06-13T06:45:00.487Z,17.00
2017-06-13T06:47:28.000Z,17.00
2017-06-13T06:49:56.311Z,17.10
2017-06-13T06:52:24.891Z,17.10
2017-06-13T06:54:52.394Z,17.20
2017-06-13T06:57:19.907Z,17.20
2017-06-13T06:59:47.503Z,17.20
2017-06-13T07:02:15.030Z,17.20
2017-06-13T07:04:42.595Z,17.20
2017-06-13T07:07:10.139Z,17.20
2017-06-13T07:09:37.710Z,17.50
2017-06-13T07:12:05.378Z,17.50
2017-06-13T07:14:32.887Z,17.60
2017-06-13T07:17:00.502Z,17.70
2017-06-13T07:19:28.267Z,17.70
2017-06-13T07:21:55.770Z,17.80
2017-06-13T07:24:23.279Z,17.90
2017-06-13T07:26:50.847Z,18.00
2017-06-13T07:29:18.402Z,18.00
2017-06-13T07:31:45.903Z,17.90
2017-06-13T07:34:13.643Z,17.90
2017-06-13T07:36:41.148Z,18.10
2017-06-13T07:39:08.739Z,18.30
2017-06-13T07:41:36.359Z,18.70
2017-06-13T07:44:03.862Z,18.90
2017-06-13T07:46:31.422Z,19.10
2017-06-13T07:48:59.083Z,19.00
2017-06-13T07:51:26.582Z,18.90
2017-06-13T07:53:54.207Z,18.90
2017-06-13T07:56:21.715Z,18.90
2017-06-13T07:58:49.323Z,18.80
2017-06-13T08:01:16.823Z,18.90
2017-06-13T08:03:44.319Z,18.80
2017-06-13T08:06:12.718Z,18.70
2017-06-13T08:08:40.234Z,18.60
2017-06-13T08:11:07.734Z,18.70
2017-06-13T08:13:35.279Z,18.60
2017-06-13T08:16:03.547Z,18.70
2017-06-13T08:18:31.814Z,18.70
2017-06-13T08:20:59.338Z,18.70
2017-06-13T08:23:26.839Z,18.90
2017-06-13T08:25:54.363Z,19.00
2017-06-13T08:28:22.090Z,19.20
2017-06-13T08:30:49.586Z,19.10
2017-06-13T08:33:17.089Z,19.20
2017-06-13T08:35:44.621Z,19.20
2017-06-13T08:38:12.123Z,19.30
2017-06-13T08:40:39.754Z,19.40
2017-06-13T08:43:07.262Z,19.50
2017-06-13T08:45:34.807Z,19.70
2017-06-13T08:48:02.354Z,19.80
2017-06-13T08:50:30.611Z,19.90
2017-06-13T08:52:58.203Z,19.90
2017-06-13T08:55:25.750Z,20.00
2017-06-13T08:57:53.251Z,20.00
2017-06-13T09:00:20.746Z,20.00
2017-06-13T09:02:48.339Z,20.10
2017-06-13T09:05:15.842Z,20.20
2017-06-13T09:07:43.373Z,20.30
2017-06-13T09:10:10.870Z,20.10
2017-06-13T09:12:38.416Z,20.10
2017-06-13T09:15:05.914Z,20.00
2017-06-13T09:17:34.179Z,19.90
2017-06-13T09:20:01.879Z,19.90
2017-06-13T09:22:29.434Z,19.80
2017-06-13T09:24:56.931Z,19.70
2017-06-13T09:27:24.550Z,19.60
2017-06-13T09:29:52.051Z,19.70
2017-06-13T09:32:19.544Z,19.70
2017-06-13T09:34:47.074Z,19.80
2017-06-13T09:37:14.563Z,19.70
2017-06-13T09:39:42.861Z,19.60
2017-06-13T09:42:10.411Z,19.60
2017-06-13T09:44:37.906Z,19.50
2017-06-13T09:47:05.445Z,19.60
2017-06-13T09:49:33.414Z,19.80
2017-06-13T09:52:00.910Z,19.90
2017-06-13T09:54:28.403Z,20.00
2017-06-13T09:56:56.810Z,20.10
2017-06-13T09:59:24.303Z,20.10
2017-06-13T10:01:51.799Z,20.10
2017-06-13T10:04:19.346Z,20.00
2017-06-13T10:06:46.947Z,19.90
2017-06-13T10:09:14.506Z,19.90
2017-06-13T10:11:42.050Z,20.00
2017-06-13T10:14:10.312Z,20.20
2017-06-13T10:16:38.623Z,20.40
2017-06-13T10:19:06.487Z,20.40
2017-06-13T10:21:34.046Z,20.50
2017-06-13T10:24:01.606Z,20.70
2017-06-13T10:26:29.166Z,20.80
2017-06-13T10:28:56.731Z,20.80
2017-06-13T10:31:24.300Z,20.60
2017-06-13T10:33:51.847Z,20.40
2017-06-13T10:36:19.416Z,20.30
2017-06-13T10:38:46.970Z,20.00
2017-06-13T10:41:14.531Z,19.90
2017-06-13T10:43:42.090Z,19.90
2017-06-13T10:46:09.646Z,19.90
2017-06-13T10:48:37.206Z,20.00
2017-06-13T10:51:04.767Z,20.10
2017-06-13T10:53:32.274Z,20.20
2017-06-13T10:55:59.774Z,20.30
2017-06-13T10:58:28.422Z,20.70
2017-06-13T11:00:55.919Z,20.60
2017-06-13T11:03:23.499Z,20.80
2017-06-13T11:05:51.046Z,21.00
2017-06-13T11:08:18.571Z,21.00
2017-06-13T11:10:46.066Z,21.10
2017-06-13T11:13:13.727Z,21.20
2017-06-13T11:15:41.223Z,21.30
2017-06-13T11:18:08.719Z,21.60
2017-06-13T11:20:37.259Z,22.10
2017-06-13T11:23:04.758Z,22.00
2017-06-13T11:25:33.063Z,22.30
2017-06-13T11:28:00.727Z,22.30
2017-06-13T11:30:28.286Z,22.20
2017-06-13T11:32:55.847Z,22.10
2017-06-13T11:35:23.379Z,22.10
2017-06-13T11:37:51.786Z,22.00
2017-06-13T11:40:19.551Z,22.00
2017-06-13T11:42:47.050Z,21.90
2017-06-13T11:45:14.546Z,21.70
2017-06-13T11:47:42.127Z,21.40
2017-06-13T11:50:09.712Z,21.20
2017-06-13T11:52:37.251Z,21.20
2017-06-13T11:55:05.006Z,21.20
2017-06-13T11:57:32.675Z,21.30
2017-06-13T12:00:00.170Z,21.20
2017-06-13T12:02:27.695Z,21.30
2017-06-13T12:04:55.255Z,21.40
2017-06-13T12:07:23.016Z,21.40
2017-06-13T12:09:50.678Z,21.60
2017-06-13T12:12:18.174Z,21.90
2017-06-13T12:14:45.794Z,22.10
2017-06-13T12:17:13.303Z,22.20
2017-06-13T12:19:41.607Z,22.20
2017-06-13T12:22:09.131Z,22.20
2017-06-13T12:24:36.723Z,22.20
2017-06-13T12:27:04.222Z,22.10
2017-06-13T12:29:31.718Z,22.20
2017-06-13T12:31:59.403Z,22.00
2017-06-13T12:34:26.982Z,22.10
2017-06-13T12:36:54.579Z,21.90
2017-06-13T12:39:22.099Z,22.10
2017-06-13T12:41:49.746Z,22.00
2017-06-13T12:44:17.408Z,22.10
2017-06-13T12:46:44.975Z,22.10
2017-06-13T12:49:12.526Z,22.00
2017-06-13T12:51:40.090Z,21.80
2017-06-13T12:54:07.651Z,21.50
2017-06-13T12:56:35.207Z,21.30
2017-06-13T12:59:02.766Z,21.10
2017-06-13T13:01:30.303Z,20.90
2017-06-13T13:03:58.706Z,20.80
2017-06-13T13:06:26.270Z,20.80
2017-06-13T13:08:53.822Z,20.80
2017-06-13T13:11:21.387Z,20.90
2017-06-13T13:13:48.886Z,21.00
2017-06-13T13:16:16.430Z,21.00
2017-06-13T13:18:43.967Z,20.90
2017-06-13T13:21:11.522Z,21.00
2017-06-13T13:23:39.054Z,21.30
2017-06-13T13:26:07.364Z,21.60
2017-06-13T13:28:35.026Z,21.50
2017-06-13T13:31:02.582Z,21.40
2017-06-13T13:33:30.242Z,21.50
2017-06-13T13:35:57.806Z,21.60
2017-06-13T13:38:25.362Z,21.80
2017-06-13T13:40:53.022Z,22.10
2017-06-13T13:43:20.590Z,22.30
2017-06-13T13:45:48.147Z,22.30
2017-06-13T13:48:15.670Z,22.40
2017-06-13T13:50:43.171Z,22.40
2017-06-13T13:53:10.730Z,22.40
2017-06-13T13:55:38.285Z,22.50
2017-06-13T13:58:05.846Z,22.40
2017-06-13T14:00:33.507Z,22.40
2017-06-13T14:03:01.011Z,22.50
2017-06-13T14:05:28.529Z,22.30
2017-06-13T14:07:56.070Z,22.40
2017-06-13T14:10:24.370Z,22.50
2017-06-13T14:12:51.923Z,22.40
2017-06-13T14:15:19.446Z,22.40
2017-06-13T14:17:47.086Z,22.20
2017-06-13T14:20:14.651Z,22.30
2017-06-13T14:22:42.211Z,22.10
2017-06-13T14:25:09.756Z,22.00
2017-06-13T14:27:37.259Z,22.00
2017-06-13T14:30:04.767Z,22.00
2017-06-13T14:32:34.999Z,21.70
2017-06-13T14:35:02.499Z,21.60
2017-06-13T14:37:29.995Z,21.60
2017-06-13T14:39:58.463Z,21.40
2017-06-13T14:42:25.971Z,21.40
2017-06-13T14:44:53.526Z,21.40
2017-06-13T14:47:21.094Z,21.40
2017-06-13T14:49:48.619Z,21.50
2017-06-13T14:52:16.883Z,21.40
2017-06-13T14:54:44.582Z,21.30
2017-06-13T14:57:12.146Z,21.20
2017-06-13T14:59:39.721Z,21.20
2017-06-13T15:02:07.250Z,21.30
2017-06-13T15:04:35.538Z,21.30
2017-06-13T15:07:03.060Z,21.30
2017-06-13T15:09:30.613Z,21.40
2017-06-13T15:11:58.123Z,21.70
2017-06-13T15:14:25.619Z,21.90
2017-06-13T15:16:53.343Z,22.10
2017-06-13T15:19:20.843Z,22.30
2017-06-13T15:21:48.341Z,22.50
2017-06-13T15:24:16.652Z,22.80
2017-06-13T15:26:44.156Z,22.80
2017-06-13T15:29:11.652Z,22.90
2017-06-13T15:31:39.199Z,23.10
2017-06-13T15:34:06.703Z,23.10
2017-06-13T15:36:34.198Z,23.20
2017-06-13T15:39:02.494Z,23.30
2017-06-13T15:41:30.759Z,23.40
2017-06-13T15:43:58.611Z,23.30
2017-06-13T15:46:28.466Z,23.50
2017-06-13T15:48:55.963Z,23.50
2017-06-13T15:51:23.463Z,23.40
2017-06-13T15:53:51.771Z,23.00
2017-06-13T15:56:19.272Z,23.00
2017-06-13T15:58:46.769Z,22.60
2017-06-13T16:01:14.644Z,22.30
2017-06-13T16:03:42.151Z,22.10
2017-06-13T16:06:09.653Z,21.70
2017-06-13T16:08:37.283Z,21.50
2017-06-13T16:11:04.780Z,21.30
2017-06-13T16:13:32.283Z,21.20
2017-06-13T16:15:59.811Z,21.20
2017-06-13T16:18:27.310Z,21.00
2017-06-13T16:20:54.830Z,20.90
2017-06-13T16:23:22.355Z,20.80
2017-06-13T16:25:50.622Z,20.60
2017-06-13T16:28:20.072Z,20.50
2017-06-13T16:30:47.696Z,20.50
2017-06-13T16:33:15.958Z,20.30
2017-06-13T16:35:43.456Z,20.30
2017-06-13T16:38:10.983Z,20.10
2017-06-13T16:40:38.518Z,20.10
2017-06-13T16:43:06.043Z,19.80
2017-06-13T16:45:33.538Z,19.80
2017-06-13T16:48:01.075Z,19.80
2017-06-13T16:50:28.571Z,19.80
2017-06-13T16:52:56.202Z,19.80
2017-06-13T16:55:23.758Z,19.70
2017-06-13T16:57:51.286Z,19.60
2017-06-13T17:00:18.847Z,19.50
2017-06-13T17:02:46.510Z,19.60
2017-06-13T17:05:14.014Z,19.60
2017-06-13T17:07:41.639Z,19.50
2017-06-13T17:10:09.144Z,19.50
2017-06-13T17:12:36.643Z,19.40
2017-06-13T17:15:04.310Z,19.30
2017-06-13T17:17:31.871Z,19.30
2017-06-13T17:19:59.428Z,19.20
2017-06-13T17:22:27.107Z,19.30
2017-06-13T17:24:54.650Z,19.40
2017-06-13T17:27:22.151Z,19.40
2017-06-13T17:29:49.770Z,19.40
2017-06-13T17:32:17.267Z,19.40
2017-06-13T17:34:44.763Z,19.40
2017-06-13T17:37:13.169Z,19.30
2017-06-13T17:39:40.667Z,19.30
2017-06-13T17:42:08.164Z,19.20
2017-06-13T17:44:35.711Z,19.20
2017-06-13T17:47:03.307Z,19.10
2017-06-13T17:49:30.868Z,19.10
2017-06-13T17:51:58.426Z,19.10
2017-06-13T17:54:25.934Z,19.10
2017-06-13T17:56:53.423Z,19.10
2017-06-13T17:59:21.736Z,19.10
2017-06-13T18:01:49.230Z,19.10
2017-06-13T18:04:16.731Z,19.10
2017-06-13T18:06:44.512Z,19.20
2017-06-13T18:09:12.018Z,19.20
2017-06-13T18:11:39.515Z,19.10
2017-06-13T18:14:07.283Z,19.10
2017-06-13T18:16:34.842Z,19.10
2017-06-13T18:19:02.507Z,19.20
2017-06-13T18:21:30.067Z,19.20
2017-06-13T18:23:57.566Z,19.10
2017-06-13T18:26:25.106Z,19.20
2017-06-13T18:28:52.630Z,19.10
2017-06-13T18:31:20.903Z,19.10
2017-06-13T18:33:49.298Z,19.20
2017-06-13T18:36:16.867Z,19.20
2017-06-13T18:38:44.427Z,19.10
2017-06-13T18:41:11.982Z,19.10
2017-06-13T18:43:39.643Z,19.20
2017-06-13T18:46:07.203Z,19.30
2017-06-13T18:48:34.742Z,19.30
2017-06-13T18:51:03.003Z,19.40
2017-06-13T18:53:30.598Z,19.30
2017-06-13T18:55:58.119Z,19.40
2017-06-13T18:58:25.721Z,19.40
2017-06-13T19:00:53.264Z,19.40
2017-06-13T19:03:21.778Z,19.50
2017-06-13T19:05:49.278Z,19.50
2017-06-13T19:08:16.983Z,19.40
2017-06-13T19:10:44.479Z,19.40
2017-06-13T19:13:11.975Z,19.40
2017-06-13T19:15:40.310Z,19.30
2017-06-13T19:18:07.819Z,19.30
2017-06-13T19:20:36.082Z,19.20
2017-06-13T19:23:03.670Z,19.20
2017-06-13T19:25:31.234Z,19.10
2017-06-13T19:27:58.794Z,19.00
2017-06-13T19:30:26.558Z,18.90
2017-06-13T19:32:54.123Z,18.90
2017-06-13T19:35:21.622Z,18.80
2017-06-13T19:37:49.147Z,18.60
2017-06-13T19:40:16.794Z,18.60
2017-06-13T19:42:44.359Z,18.40
2017-06-13T19:45:11.923Z,18.40
2017-06-13T19:47:39.578Z,18.30
2017-06-13T19:50:07.071Z,18.10
2017-06-13T19:52:34.599Z,18.10
2017-06-13T19:55:02.161Z,18.00
2017-06-13T19:57:29.658Z,17.90
2017-06-13T19:59:57.175Z,17.80
2017-06-13T20:02:24.738Z,17.70
2017-06-13T20:04:52.298Z,17.60
2017-06-13T20:07:19.795Z,17.50
2017-06-13T20:09:47.346Z,17.40
2017-06-13T20:12:14.839Z,17.30
2017-06-13T20:14:43.152Z,17.30
2017-06-13T20:17:10.797Z,17.20
2017-06-13T20:19:39.163Z,17.10
2017-06-13T20:22:07.438Z,17.10
2017-06-13T20:24:35.886Z,17.00
2017-06-13T20:27:09.062Z,17.00
2017-06-13T20:29:36.611Z,16.90
2017-06-13T20:32:04.111Z,16.90
2017-06-13T20:34:31.718Z,16.80
2017-06-13T20:36:59.278Z,16.80
2017-06-13T20:39:26.779Z,16.60
2017-06-13T20:41:54.288Z,16.50
2017-06-13T20:44:21.915Z,16.50
2017-06-13T20:46:50.198Z,16.20
2017-06-13T20:49:18.467Z,16.20
2017-06-13T20:51:46.071Z,16.20
2017-06-13T20:54:13.578Z,16.10
2017-06-13T20:56:41.085Z,15.90
2017-06-13T20:59:09.651Z,15.90
2017-06-13T21:01:37.238Z,15.80
2017-06-13T21:04:04.794Z,15.70
2017-06-13T21:06:32.355Z,15.60
2017-06-13T21:08:59.914Z,15.50
2017-06-13T21:11:27.474Z,15.40
2017-06-13T21:13:55.035Z,15.40
2017-06-13T21:16:22.794Z,15.30
2017-06-13T21:18:50.294Z,15.20
2017-06-13T21:21:17.814Z,15.20
2017-06-13T21:23:45.578Z,15.10
2017-06-13T21:26:13.146Z,15.10
2017-06-13T21:28:40.703Z,15.00
2017-06-13T21:31:08.258Z,14.90
2017-06-13T21:33:35.818Z,14.90
2017-06-13T21:36:03.315Z,14.80
2017-06-13T21:38:30.911Z,14.70
2017-06-13T21:40:59.214Z,14.60
2017-06-13T21:43:26.744Z,14.60
2017-06-13T21:45:55.006Z,14.50
2017-06-13T21:48:23.536Z,14.50
2017-06-13T21:50:51.099Z,14.50
2017-06-13T21:53:18.754Z,14.40
2017-06-13T21:55:46.315Z,14.30
2017-06-13T21:58:13.879Z,14.40
2017-06-13T22:00:41.408Z,14.30
2017-06-13T22:03:09.814Z,14.20
2017-06-13T22:05:37.311Z,14.10
2017-06-13T22:08:04.855Z,14.10
2017-06-13T22:10:32.351Z,14.00
2017-06-13T22:12:59.857Z,13.90
2017-06-13T22:15:27.395Z,13.90
2017-06-13T22:17:54.898Z,13.80
2017-06-13T22:20:22.392Z,13.80
2017-06-13T22:22:50.016Z,13.80
2017-06-13T22:25:17.510Z,13.80
2017-06-13T22:27:45.006Z,13.70
2017-06-13T22:30:12.535Z,13.80
2017-06-13T22:32:40.071Z,13.70
2017-06-13T22:35:08.335Z,13.60
2017-06-13T22:37:35.863Z,13.60
2017-06-13T22:40:03.354Z,13.50
2017-06-13T22:42:30.882Z,13.50
2017-06-13T22:44:59.227Z,13.40
2017-06-13T22:47:26.767Z,13.40
2017-06-13T22:49:55.031Z,13.30
2017-06-13T22:52:22.528Z,13.30
2017-06-13T22:54:50.067Z,13.20
2017-06-13T22:57:18.331Z,13.10
2017-06-13T22:59:46.595Z,13.10
2017-06-13T23:02:14.139Z,13.10
2017-06-13T23:04:41.634Z,13.10
2017-06-13T23:07:09.899Z,13.00
2017-06-13T23:09:37.435Z,13.00
2017-06-13T23:12:04.935Z,13.00
2017-06-13T23:14:33.195Z,12.90
2017-06-13T23:17:01.168Z,12.90
2017-06-13T23:19:29.431Z,12.80
2017-06-13T23:21:56.927Z,12.80
2017-06-13T23:24:24.461Z,12.80
2017-06-13T23:26:51.954Z,12.70
2017-06-13T23:29:19.447Z,12.70
2017-06-13T23:31:46.982Z,12.70
2017-06-13T23:34:14.481Z,12.70
2017-06-13T23:36:41.976Z,12.70
2017-06-13T23:39:09.599Z,12.70
2017-06-13T23:41:37.090Z,12.60
2017-06-13T23:44:05.348Z,12.60
2017-06-13T23:46:33.386Z,12.50
2017-06-13T23:49:00.923Z,12.50
2017-06-13T23:51:28.420Z,12.40
2017-06-13T23:53:55.948Z,12.40
2017-06-13T23:56:23.446Z,12.40
2017-06-13T23:58:50.971Z,12.30
